Airfield :







YOU CAN JOIN US ON...

 
LOGIN :

Register | Disclaimer

   EN    FR    IT 

 









Legend :    VFR   Marginal VFR   IFR   Intensive IFR   Very Intensive IFR
Visi :
Ceiling :
>= 8 km
>= 3000ft
5 to 8 km
1000 to 3000 ft
1500m to 5 km
500 to 1000 ft
800 to 1500m
200 to 500 ft
< 800m
< 200 ft
Symbols :   Thunderstorms  Fog  Heavy snow  Heavy precipitations  Wind > 20 kt






- Airport Elevation : 461 ft
- IATA code : YYT


CYYT - St John's Int

CURRENT METAR :
  • 061023Z 21018G23KT 15SM BKN040 BKN082 15/14 A2985 RMK SC5AC2 SLP110 DENSITY ALT 700FT

EXPIRED METARs :
  • 061000Z 21015G22KT 15SM -SHRA BKN044 15/14 A2985 RMK SC7 TCU EMBD SLP111 DENSITY ALT 700FT
  • 060954Z CCA 22014G23KT 15SM -SHRA BKN024 15/14 A2986 RMK CU7 SLP112 DENSITY ALT 700FT
  • 060900Z 23011G16KT 15SM FEW005 OVC055 15/14 A2987 RMK SF1SC7 SLP117 DENSITY ALT 700FT

TAF AMD TAF CYYT
Valid from the 06 at 10:00 until the 07 at 06:00 UTC


061027Z 0610/0706 21012G22KT P6SM BKN040 BKN080
TEMPO 0610/0611 BKN020 BKN040
FM061100 24015KT P6SM BKN015 BKN080
FM061700 25015KT P6SM SCT030 BKN150
FM062200 24008KT P6SM BKN015 BKN060 OVC120
FM070200 25010KT 1/2SM -RA FG OVC003 RMK NXT FCST BY 061200Z
CZQX FIR / North America



MET'MAP, your aeronautical weather chart ! - Copyright ORBIFLY December 2007 - Disclaimer

ORBIFLY MET'MAP TEAM :

Programming & Development : Alexandra Zaïnal
Concept & original design : Baudouin d'Aumeries
Assistance for programming : Marc-Olivier Méhu
Technical & hardware support : Manuel Goepfert

Contact : metmap@orbifly.com




SOURCES & CREDITS :

   NOAA